Time;durP1;ratioP1;P1;durP2;ratioP2;P2;SDS_P1;SDS_P2;PMS_P1;PMS_P2;Temp;Humidity;BMP_temperature;BMP_pressure;BME280_temperature;BME280_humidity;BME280_pressure;Samples;Min_cycle;Max_cycle;Signal;HPM_P1;HPM_P2
2022/07/17 00:00:59;;;;;;;3.15;1.90;;;;;;;21.69;50.86;94320.66;5123019;28;20023;-76
2022/07/17 00:03:24;;;;;;;6.47;1.75;;;;;;;21.69;50.87;94334.22;5122877;28;20047;-76
2022/07/17 00:05:50;;;;;;;4.72;2.20;;;;;;;21.69;50.73;94335.00;5122967;28;20046;-76
2022/07/17 00:08:15;;;;;;;4.00;1.90;;;;;;;21.69;50.88;94336.94;5122868;28;20008;-76
2022/07/17 00:10:42;;;;;;;6.25;2.10;;;;;;;21.64;51.06;94344.25;5123100;28;20110;-76
2022/07/17 00:13:08;;;;;;;7.45;2.22;;;;;;;21.62;50.92;94340.38;5122744;28;20026;-76
2022/07/17 00:15:35;;;;;;;5.40;1.80;;;;;;;21.62;51.33;94343.06;5122704;28;20074;-76
2022/07/17 00:18:01;;;;;;;3.95;1.70;;;;;;;21.59;50.96;94346.53;5122817;28;20128;-76
2022/07/17 00:20:28;;;;;;;5.32;1.85;;;;;;;21.57;51.24;94348.81;5122845;28;20040;-76
2022/07/17 00:22:57;;;;;;;4.05;1.90;;;;;;;21.48;51.24;94349.13;5122568;28;20016;-76
2022/07/17 00:25:24;;;;;;;4.82;2.22;;;;;;;21.47;51.57;94346.78;5122860;28;20217;-76
2022/07/17 00:27:50;;;;;;;4.13;2.05;;;;;;;21.45;51.26;94355.28;5122736;28;20073;-76
2022/07/17 00:30:16;;;;;;;3.40;2.10;;;;;;;21.48;51.44;94342.94;5125859;28;20248;-76
2022/07/17 00:32:42;;;;;;;3.10;2.00;;;;;;;21.45;51.42;94352.56;5126817;28;20091;-76
2022/07/17 00:35:08;;;;;;;4.40;1.90;;;;;;;21.37;51.60;94335.41;5126677;28;20098;-76
2022/07/17 00:37:41;;;;;;;3.90;1.95;;;;;;;21.36;52.04;94347.41;5126523;28;20051;-76
2022/07/17 00:40:08;;;;;;;4.55;2.10;;;;;;;21.32;51.54;94340.38;5126464;28;20060;-76
2022/07/17 00:42:34;;;;;;;4.82;1.85;;;;;;;21.30;51.78;94346.16;5126472;28;20038;-76
2022/07/17 00:44:59;;;;;;;8.20;1.75;;;;;;;21.27;51.40;94341.50;5126388;28;20016;-76
2022/07/17 00:47:25;;;;;;;7.18;1.98;;;;;;;21.23;51.43;94341.44;5126392;28;20195;-76
2022/07/17 00:49:50;;;;;;;2.78;1.83;;;;;;;21.27;51.76;94346.13;5126369;28;20026;-76
2022/07/17 00:52:17;;;;;;;5.25;1.70;;;;;;;21.20;51.61;94346.81;5126459;28;20015;-76
2022/07/17 00:54:45;;;;;;;7.13;2.00;;;;;;;21.13;51.78;94339.41;5126015;28;20331;-76
2022/07/17 00:57:13;;;;;;;2.95;1.70;;;;;;;21.13;51.88;94352.16;5126150;27;20043;-76
2022/07/17 00:59:39;;;;;;;4.95;2.17;;;;;;;21.13;51.70;94354.88;5126049;28;20027;-76
2022/07/17 01:02:07;;;;;;;4.10;1.40;;;;;;;21.10;51.97;94361.03;5126022;28;20069;-76
2022/07/17 01:04:34;;;;;;;4.18;1.98;;;;;;;21.06;51.71;94352.84;5125957;28;20015;-76
2022/07/17 01:07:00;;;;;;;5.32;2.08;;;;;;;21.06;52.35;94352.06;5126046;28;20011;-76
2022/07/17 01:09:29;;;;;;;6.22;2.17;;;;;;;21.02;51.93;94363.66;5125884;28;20217;-76
2022/07/17 01:11:56;;;;;;;4.32;1.85;;;;;;;20.98;51.52;94368.22;5125971;28;20015;-76
2022/07/17 01:14:23;;;;;;;4.10;1.83;;;;;;;20.92;51.71;94375.09;5125723;28;20015;-76
2022/07/17 01:16:50;;;;;;;3.38;1.90;;;;;;;20.92;52.31;94364.25;5125590;27;20046;-76
2022/07/17 01:19:15;;;;;;;4.80;2.00;;;;;;;20.89;52.66;94370.44;5125916;28;20023;-75
2022/07/17 01:21:43;;;;;;;6.57;1.77;;;;;;;20.90;52.26;94363.06;5125933;28;20079;-75
2022/07/17 01:24:09;;;;;;;2.97;1.95;;;;;;;20.85;51.94;94364.19;5125557;28;20333;-75
2022/07/17 01:26:35;;;;;;;5.28;2.20;;;;;;;20.82;52.01;94368.41;5125658;28;20183;-75
2022/07/17 01:29:00;;;;;;;7.22;2.40;;;;;;;20.82;51.53;94354.06;5125581;28;20042;-75
2022/07/17 01:31:26;;;;;;;3.80;2.03;;;;;;;20.82;51.57;94349.44;5125351;28;20328;-75
2022/07/17 01:33:52;;;;;;;3.25;1.85;;;;;;;20.82;51.23;94354.06;5125462;28;20050;-75
2022/07/17 01:36:26;;;;;;;6.13;2.15;;;;;;;20.78;51.18;94359.44;5125535;28;20019;-75
2022/07/17 01:38:52;;;;;;;8.93;2.15;;;;;;;20.81;50.88;94355.22;5125412;28;20062;-75
2022/07/17 01:41:18;;;;;;;6.32;2.10;;;;;;;20.83;50.29;94363.75;5124332;28;20064;-75
2022/07/17 01:43:43;;;;;;;2.78;1.77;;;;;;;20.77;50.63;94362.53;5125485;28;20321;-76
2022/07/17 01:46:08;;;;;;;2.70;1.77;;;;;;;20.73;50.82;94365.16;5125276;28;20027;-75
2022/07/17 01:48:34;;;;;;;2.33;1.63;;;;;;;20.62;51.00;94365.03;5125103;28;20047;-75
2022/07/17 01:50:59;;;;;;;2.90;1.60;;;;;;;20.55;50.93;94358.69;5125224;28;20020;-75
2022/07/17 01:53:25;;;;;;;3.33;1.85;;;;;;;20.61;50.95;94355.31;5125090;28;20043;-76
2022/07/17 01:55:51;;;;;;;3.72;2.00;;;;;;;20.66;51.58;94356.16;5125027;28;20092;-75
2022/07/17 01:58:17;;;;;;;3.38;2.25;;;;;;;20.62;51.13;94356.91;5124993;28;20056;-75
2022/07/17 02:00:43;;;;;;;3.22;2.00;;;;;;;20.64;51.46;94368.16;5125204;28;20027;-75
2022/07/17 02:03:08;;;;;;;8.80;2.20;;;;;;;20.70;51.31;94370.53;5124895;28;20023;-75
2022/07/17 02:05:34;;;;;;;3.70;2.40;;;;;;;20.70;51.21;94368.63;5124933;28;20129;-76
2022/07/17 02:07:59;;;;;;;3.65;2.03;;;;;;;20.71;51.65;94370.16;5124954;28;20057;-75
2022/07/17 02:10:25;;;;;;;4.55;1.65;;;;;;;20.74;51.18;94374.06;5124714;28;20026;-75
2022/07/17 02:12:50;;;;;;;5.35;1.98;;;;;;;20.77;50.86;94376.06;5123428;28;20019;-75
2022/07/17 02:15:16;;;;;;;3.60;2.13;;;;;;;20.80;51.29;94376.13;5124799;28;20064;-75
2022/07/17 02:17:42;;;;;;;4.75;1.70;;;;;;;20.83;51.21;94374.59;5124700;28;20015;-76
2022/07/17 02:20:09;;;;;;;5.93;2.20;;;;;;;20.82;50.98;94365.69;5124699;28;20023;-75
2022/07/17 02:22:36;;;;;;;5.75;2.20;;;;;;;20.83;51.96;94363.75;5124333;28;20026;-75
2022/07/17 02:25:05;;;;;;;5.78;1.95;;;;;;;20.84;52.52;94363.41;5124507;28;20023;-75
2022/07/17 02:27:34;;;;;;;4.90;2.33;;;;;;;20.86;52.20;94371.16;5124272;28;20033;-75
2022/07/17 02:30:15;;;;;;;3.30;2.00;;;;;;;20.85;52.29;94364.19;5124271;28;20019;-76
2022/07/17 02:32:42;;;;;;;5.07;1.88;;;;;;;20.84;51.93;94359.91;5124225;28;20023;-75
2022/07/17 02:35:09;;;;;;;5.63;2.45;;;;;;;20.79;52.44;94360.22;5124125;28;20113;-75
2022/07/17 02:37:35;;;;;;;10.77;2.40;;;;;;;20.77;52.15;94373.34;5124080;28;20016;-75
2022/07/17 02:40:01;;;;;;;5.07;1.80;;;;;;;20.73;52.15;94372.53;5124152;28;20027;-75
2022/07/17 02:42:28;;;;;;;3.70;2.30;;;;;;;20.68;52.73;94372.81;5124152;28;20080;-75
2022/07/17 02:44:55;;;;;;;3.63;1.67;;;;;;;20.66;52.97;94372.41;5124026;28;20333;-75
2022/07/17 02:47:34;;;;;;;5.13;1.90;;;;;;;20.62;51.98;94378.56;5123891;28;20028;-76
2022/07/17 02:50:03;;;;;;;3.58;2.05;;;;;;;20.61;51.78;94371.56;5123868;28;20213;-76
2022/07/17 02:52:28;;;;;;;6.82;2.03;;;;;;;20.59;52.04;94381.22;5123656;28;20046;-76
2022/07/17 02:54:54;;;;;;;3.65;1.80;;;;;;;20.58;51.64;94385.06;5123663;28;20222;-75
2022/07/17 02:57:20;;;;;;;4.18;2.05;;;;;;;20.58;51.00;94388.56;5123740;28;20023;-75
2022/07/17 02:59:46;;;;;;;3.58;1.77;;;;;;;20.53;50.69;94388.06;5124116;28;20054;-75
2022/07/17 03:02:11;;;;;;;4.60;1.83;;;;;;;20.47;50.40;94387.56;5123719;28;20027;-75
2022/07/17 03:04:37;;;;;;;5.50;2.25;;;;;;;20.44;50.29;94388.31;5123577;28;20015;-76
2022/07/17 03:07:02;;;;;;;3.55;2.30;;;;;;;20.40;50.87;94387.47;5123659;28;20235;-76
2022/07/17 03:09:28;;;;;;;4.25;2.08;;;;;;;20.42;51.38;94396.00;5123914;28;20104;-76
2022/07/17 03:11:53;;;;;;;4.70;2.33;;;;;;;20.45;50.35;94397.97;5122377;28;20016;-76
2022/07/17 03:14:19;;;;;;;8.52;2.15;;;;;;;20.39;50.48;94400.25;5123393;28;20020;-76
2022/07/17 03:16:44;;;;;;;2.67;1.80;;;;;;;20.40;49.13;94403.72;5123469;28;20114;-75
2022/07/17 03:19:10;;;;;;;5.90;2.72;;;;;;;20.41;49.70;94411.47;5123293;28;20024;-75
2022/07/17 03:21:35;;;;;;;4.68;1.98;;;;;;;20.44;49.15;94409.97;5123296;28;20023;-76
2022/07/17 03:24:01;;;;;;;6.57;2.40;;;;;;;20.49;48.39;94412.34;5123286;28;20094;-76
2022/07/17 03:26:26;;;;;;;7.53;2.85;;;;;;;20.58;47.86;94409.41;5123506;28;20023;-75
2022/07/17 03:28:51;;;;;;;3.22;2.17;;;;;;;20.55;47.46;94410.91;5123301;28;20028;-75
2022/07/17 03:31:17;;;;;;;4.97;1.77;;;;;;;20.53;47.69;94415.13;5123109;28;20027;-75
2022/07/17 03:33:43;;;;;;;8.63;2.15;;;;;;;20.60;47.76;94423.41;5123368;28;20024;-75
2022/07/17 03:36:08;;;;;;;5.22;2.20;;;;;;;20.62;48.14;94431.97;5123340;28;20047;-75
2022/07/17 03:38:34;;;;;;;10.98;2.17;;;;;;;20.66;48.48;94426.56;5123164;28;20024;-76
2022/07/17 03:40:59;;;;;;;5.60;2.45;;;;;;;20.68;47.09;94425.09;5123258;28;20227;-76
2022/07/17 03:43:25;;;;;;;3.38;1.58;;;;;;;20.67;46.72;94428.91;5123341;28;20031;-75
2022/07/17 03:45:50;;;;;;;4.80;1.83;;;;;;;20.74;46.30;94445.31;5123212;28;20325;-75
2022/07/17 03:48:16;;;;;;;2.92;1.45;;;;;;;20.75;46.48;94432.53;5123212;28;20104;-75
2022/07/17 03:50:41;;;;;;;4.07;1.80;;;;;;;20.75;45.79;94427.13;5122955;28;20024;-75
2022/07/17 03:53:07;;;;;;;4.53;2.38;;;;;;;20.76;46.22;94432.19;5123087;28;20019;-75
2022/07/17 03:55:32;;;;;;;6.60;2.47;;;;;;;20.81;46.83;94436.50;5122795;28;20020;-75
2022/07/17 03:57:58;;;;;;;6.47;2.40;;;;;;;20.89;45.54;94438.16;5122908;28;20020;-75
2022/07/17 04:00:24;;;;;;;5.15;2.45;;;;;;;20.93;44.71;94441.72;5122993;28;20119;-75
2022/07/17 04:02:50;;;;;;;4.38;2.58;;;;;;;20.98;44.92;94448.72;5122850;28;20023;-75
2022/07/17 04:05:15;;;;;;;4.82;1.90;;;;;;;21.06;45.53;94450.41;5126430;28;20031;-76
2022/07/17 04:07:42;;;;;;;3.65;1.98;;;;;;;21.11;44.65;94452.03;5127133;28;20027;-75
2022/07/17 04:10:10;;;;;;;4.30;2.20;;;;;;;21.18;45.75;94452.13;5127049;28;20335;-76
2022/07/17 04:12:36;;;;;;;4.15;1.98;;;;;;;21.20;45.63;94458.72;5126873;28;20030;-76
2022/07/17 04:15:03;;;;;;;8.23;1.80;;;;;;;21.26;46.22;94459.22;5126870;28;20023;-76
2022/07/17 04:17:29;;;;;;;3.85;2.05;;;;;;;21.31;44.97;94460.81;5126721;28;20105;-76
2022/07/17 04:19:54;;;;;;;5.07;2.33;;;;;;;21.34;47.50;94466.28;5126722;28;20321;-76
2022/07/17 04:22:20;;;;;;;3.63;2.10;;;;;;;21.35;47.55;94472.47;5127133;27;20031;-76
2022/07/17 04:24:46;;;;;;;7.95;2.17;;;;;;;21.38;47.91;94471.75;5126785;27;20278;-76
2022/07/17 04:27:12;;;;;;;4.68;2.53;;;;;;;21.41;47.32;94477.25;5126739;28;20063;-76
2022/07/17 04:29:37;;;;;;;6.65;2.22;;;;;;;21.47;46.95;94477.72;5126813;28;20322;-76
2022/07/17 04:32:03;;;;;;;7.60;2.50;;;;;;;21.54;47.03;94468.91;5126557;28;20020;-76
2022/07/17 04:34:29;;;;;;;5.15;2.70;;;;;;;21.61;47.82;94479.84;5126614;28;20043;-76
2022/07/17 04:36:55;;;;;;;4.85;2.38;;;;;;;21.68;48.10;94476.44;5126232;28;20191;-76
2022/07/17 04:39:21;;;;;;;9.77;2.67;;;;;;;21.78;48.47;94473.09;5126796;28;20019;-76
2022/07/17 04:41:47;;;;;;;3.00;2.00;;;;;;;21.86;47.87;94482.06;5126683;28;20026;-76
2022/07/17 04:44:12;;;;;;;7.22;1.98;;;;;;;21.92;46.36;94481.38;5126349;28;20023;-76
2022/07/17 04:46:37;;;;;;;5.40;1.98;;;;;;;22.02;46.73;94493.50;5126406;28;20045;-76
2022/07/17 04:49:03;;;;;;;7.53;2.10;;;;;;;22.06;44.92;94488.13;5126179;28;20050;-76
2022/07/17 04:51:29;;;;;;;5.43;2.17;;;;;;;22.08;45.98;94489.31;5126309;28;20042;-76
2022/07/17 04:53:54;;;;;;;4.70;1.92;;;;;;;22.15;44.83;94486.69;5126426;28;20027;-76
2022/07/17 04:56:20;;;;;;;4.53;2.67;;;;;;;22.16;44.90;94496.38;5126424;28;20011;-76
2022/07/17 04:58:45;;;;;;;5.60;1.95;;;;;;;22.16;43.19;94492.88;5125923;28;20031;-76
2022/07/17 05:01:11;;;;;;;3.00;2.05;;;;;;;22.19;40.21;94501.06;5126083;28;20050;-76
2022/07/17 05:03:37;;;;;;;5.25;1.90;;;;;;;22.21;38.13;94503.44;5126100;28;20030;-76
2022/07/17 05:06:03;;;;;;;6.75;1.65;;;;;;;22.23;41.55;94503.84;5126107;28;20027;-76
2022/07/17 05:08:28;;;;;;;5.43;2.00;;;;;;;22.22;38.33;94513.13;5125676;28;20253;-76
2022/07/17 05:10:54;;;;;;;5.65;2.03;;;;;;;22.30;39.16;94522.16;5125927;28;20028;-76
2022/07/17 05:13:19;;;;;;;5.75;1.70;;;;;;;22.33;39.28;94519.50;5125994;28;20019;-76
2022/07/17 05:15:45;;;;;;;4.68;1.92;;;;;;;22.37;41.84;94520.31;5125544;28;20063;-76
2022/07/17 05:18:11;;;;;;;4.18;1.58;;;;;;;22.38;43.27;94510.22;5125721;28;20019;-76
2022/07/17 05:20:36;;;;;;;7.15;2.15;;;;;;;22.37;43.09;94514.09;5125750;28;20042;-76
2022/07/17 05:23:02;;;;;;;7.82;1.90;;;;;;;22.35;40.27;94516.41;5125858;28;20024;-76
2022/07/17 05:25:27;;;;;;;6.28;2.33;;;;;;;22.30;38.36;94516.72;5125507;27;20034;-76
2022/07/17 05:27:53;;;;;;;7.28;1.70;;;;;;;22.21;38.79;94517.78;5125657;28;20015;-75
2022/07/17 05:30:18;;;;;;;3.28;1.67;;;;;;;22.33;39.27;94507.84;5125788;28;20039;-75
2022/07/17 05:32:44;;;;;;;3.90;2.25;;;;;;;22.39;40.73;94519.94;5125390;28;20041;-75
2022/07/17 05:35:09;;;;;;;3.53;1.92;;;;;;;22.37;37.67;94525.75;5125243;28;20039;-75
2022/07/17 05:37:35;;;;;;;3.45;2.05;;;;;;;22.41;37.62;94521.13;5125466;28;20053;-76
2022/07/17 05:40:00;;;;;;;3.13;1.65;;;;;;;22.48;38.64;94525.06;5125397;28;20024;-75
2022/07/17 05:42:26;;;;;;;6.20;1.80;;;;;;;22.48;38.30;94520.41;5125342;28;20047;-75
2022/07/17 05:44:51;;;;;;;3.63;1.70;;;;;;;22.48;37.62;94519.63;5125422;28;20038;-75
2022/07/17 05:47:17;;;;;;;4.97;2.20;;;;;;;22.46;38.36;94514.56;5125007;28;20016;-75
2022/07/17 05:49:42;;;;;;;6.30;1.90;;;;;;;22.42;39.25;94517.25;5125066;28;20046;-75
2022/07/17 05:52:08;;;;;;;8.68;1.65;;;;;;;22.47;39.36;94518.06;5125374;28;20030;-75
2022/07/17 05:54:33;;;;;;;7.65;2.10;;;;;;;22.58;38.53;94514.28;5125213;28;20224;-75
2022/07/17 05:57:00;;;;;;;6.35;2.13;;;;;;;22.72;38.33;94518.31;5124916;28;20270;-75
2022/07/17 05:59:26;;;;;;;4.07;1.95;;;;;;;22.79;37.39;94518.34;5124944;28;20023;-76
2022/07/17 06:01:51;;;;;;;10.70;2.65;;;;;;;22.85;37.15;94522.28;5125000;28;20315;-76
2022/07/17 06:04:17;;;;;;;4.75;2.53;;;;;;;23.01;38.44;94514.69;5124666;27;20116;-76
2022/07/17 06:06:42;;;;;;;5.85;2.10;;;;;;;23.10;38.37;94522.53;5124754;28;20217;-76
2022/07/17 06:09:08;;;;;;;6.97;1.92;;;;;;;23.22;37.01;94524.16;5124841;28;20221;-75
2022/07/17 06:11:33;;;;;;;8.75;2.40;;;;;;;23.33;36.48;94518.81;5124661;27;20020;-75
2022/07/17 06:13:59;;;;;;;6.40;2.50;;;;;;;23.41;36.66;94529.38;5124691;28;20091;-75
2022/07/17 06:16:24;;;;;;;5.55;1.90;;;;;;;23.49;36.29;94527.47;5124409;28;20043;-75
2022/07/17 06:18:49;;;;;;;7.88;2.03;;;;;;;23.57;36.34;94520.91;5124682;28;20054;-75
2022/07/17 06:21:15;;;;;;;6.53;2.33;;;;;;;23.65;36.83;94529.91;5124522;28;20042;-75
2022/07/17 06:23:41;;;;;;;3.75;1.55;;;;;;;23.74;36.22;94533.03;5124431;28;20027;-75
2022/07/17 06:26:06;;;;;;;5.82;2.20;;;;;;;23.81;35.86;94537.78;5124179;28;20310;-75
2022/07/17 06:28:31;;;;;;;5.35;1.95;;;;;;;23.87;35.77;94549.09;5124211;28;20313;-75
2022/07/17 06:30:57;;;;;;;7.38;2.38;;;;;;;23.95;36.11;94545.22;5124185;28;20026;-75
2022/07/17 06:33:22;;;;;;;3.22;2.13;;;;;;;24.00;35.44;94544.88;5123127;28;20019;-75
2022/07/17 06:35:48;;;;;;;5.43;2.92;;;;;;;23.94;34.98;94546.41;5124292;28;20015;-75
2022/07/17 06:38:13;;;;;;;8.18;1.95;;;;;;;23.85;35.47;94545.97;5124223;28;20041;-75
2022/07/17 06:40:39;;;;;;;8.30;2.38;;;;;;;23.66;35.32;94542.34;5124230;28;20030;-75
2022/07/17 06:43:06;;;;;;;3.53;2.10;;;;;;;23.53;35.28;94538.34;5124307;28;20012;-75
2022/07/17 06:45:31;;;;;;;5.68;2.30;;;;;;;23.53;37.71;94541.88;5124014;28;20332;-75
2022/07/17 06:47:57;;;;;;;7.40;2.95;;;;;;;23.57;37.51;94539.16;5124056;28;20012;-75
2022/07/17 06:50:22;;;;;;;7.38;2.25;;;;;;;23.55;37.39;94536.03;5124366;28;20314;-75
2022/07/17 06:52:48;;;;;;;4.95;2.08;;;;;;;23.42;37.28;94539.06;5124187;28;20046;-75
2022/07/17 06:55:13;;;;;;;6.07;2.80;;;;;;;23.41;36.80;94537.53;5123984;28;20198;-75
2022/07/17 06:57:39;;;;;;;5.38;2.05;;;;;;;23.32;36.54;94539.00;5123711;28;20034;-75
2022/07/17 07:00:05;;;;;;;7.60;2.10;;;;;;;23.38;38.22;94532.81;5123963;28;20023;-75
2022/07/17 07:02:30;;;;;;;4.22;2.17;;;;;;;23.49;37.49;94543.00;5123815;28;20092;-75
2022/07/17 07:04:56;;;;;;;4.55;2.75;;;;;;;23.51;37.60;94540.69;5123536;28;20369;-75
2022/07/17 07:07:21;;;;;;;6.70;2.28;;;;;;;23.66;37.21;94542.34;5123862;28;20062;-75
2022/07/17 07:09:47;;;;;;;7.10;2.10;;;;;;;23.73;36.25;94544.31;5123788;28;20020;-75
2022/07/17 07:12:12;;;;;;;5.13;2.15;;;;;;;23.78;35.99;94557.59;5123739;28;20096;-75
2022/07/17 07:14:38;;;;;;;4.70;2.15;;;;;;;23.80;35.44;94552.56;5123532;28;20025;-75
2022/07/17 07:17:05;;;;;;;7.88;2.22;;;;;;;23.72;36.04;94548.97;5123259;28;20042;-75
2022/07/17 07:19:30;;;;;;;4.57;2.47;;;;;;;23.66;37.95;94552.44;5123581;28;20035;-75
2022/07/17 07:21:56;;;;;;;9.80;2.58;;;;;;;23.70;38.52;94548.56;5123499;28;20026;-75
2022/07/17 07:24:22;;;;;;;3.88;2.17;;;;;;;23.64;36.47;94548.16;5122654;28;20020;-75
2022/07/17 07:26:47;;;;;;;4.00;2.05;;;;;;;23.59;38.58;94542.28;5123356;28;20025;-75
2022/07/17 07:29:13;;;;;;;10.00;2.20;;;;;;;23.62;37.86;94560.56;5123224;28;20243;-75
2022/07/17 07:31:38;;;;;;;5.55;2.40;;;;;;;23.68;37.23;94548.19;5123441;28;20305;-75
2022/07/17 07:34:04;;;;;;;6.72;2.38;;;;;;;23.80;36.49;94555.28;5123356;28;20007;-75
2022/07/17 07:36:29;;;;;;;4.90;2.35;;;;;;;23.88;36.39;94558.81;5123285;28;20022;-75
2022/07/17 07:38:55;;;;;;;3.75;2.20;;;;;;;24.00;36.80;94559.25;5122332;28;20087;-75
2022/07/17 07:41:20;;;;;;;3.95;2.10;;;;;;;24.11;35.59;94559.31;5123198;28;20031;-76
2022/07/17 07:43:46;;;;;;;4.20;2.15;;;;;;;24.13;35.63;94558.94;5123360;27;20031;-75
2022/07/17 07:46:11;;;;;;;4.80;2.25;;;;;;;24.13;35.99;94551.53;5123193;28;20043;-75
2022/07/17 07:48:37;;;;;;;4.28;2.08;;;;;;;24.18;34.76;94559.34;5123107;28;20022;-75
2022/07/17 07:51:02;;;;;;;4.18;2.15;;;;;;;24.15;35.19;94557.38;5122881;28;20019;-75
2022/07/17 07:53:28;;;;;;;5.82;2.08;;;;;;;24.26;35.70;94562.09;5122912;28;20030;-76
2022/07/17 07:55:53;;;;;;;5.30;2.47;;;;;;;24.39;34.54;94557.88;5123351;28;20046;-76
2022/07/17 07:58:19;;;;;;;4.07;2.60;;;;;;;24.47;34.17;94545.06;5123034;28;20337;-76
2022/07/17 08:00:45;;;;;;;5.30;1.92;;;;;;;24.55;33.18;94558.31;5123059;28;20042;-76
2022/07/17 08:03:11;;;;;;;6.43;2.17;;;;;;;24.63;34.56;94556.41;5122930;28;20293;-76
2022/07/17 08:05:37;;;;;;;3.42;1.63;;;;;;;24.70;34.09;94563.81;5122868;28;20015;-76
2022/07/17 08:08:02;;;;;;;4.60;2.20;;;;;;;24.78;33.08;94562.66;5123004;28;20034;-76
2022/07/17 08:10:28;;;;;;;6.72;2.10;;;;;;;24.84;32.71;94558.38;5122768;28;20022;-76
2022/07/17 08:12:54;;;;;;;3.00;1.90;;;;;;;24.85;33.34;94556.44;5122995;28;20026;-76
2022/07/17 08:15:20;;;;;;;3.63;1.60;;;;;;;24.89;32.97;94555.25;5122533;28;20027;-76
2022/07/17 08:17:48;;;;;;;4.65;2.28;;;;;;;24.91;32.13;94555.66;5122834;28;20191;-76
2022/07/17 08:20:15;;;;;;;8.32;2.75;;;;;;;24.78;33.22;94565.38;5123000;28;20139;-76
2022/07/17 08:22:42;;;;;;;3.55;1.95;;;;;;;24.82;33.55;94555.25;5122739;28;20090;-76
2022/07/17 08:25:08;;;;;;;5.63;2.30;;;;;;;24.78;32.10;94563.44;5122763;28;20032;-76
2022/07/17 08:27:37;;;;;;;8.55;2.30;;;;;;;24.77;32.42;94553.72;5122739;28;20019;-76
2022/07/17 08:30:05;;;;;;;6.40;3.03;;;;;;;24.82;33.27;94561.50;5122746;28;20023;-76
2022/07/17 08:32:30;;;;;;;3.65;2.30;;;;;;;24.87;32.89;94554.88;5122750;28;20084;-76
2022/07/17 08:34:56;;;;;;;4.13;2.60;;;;;;;24.92;33.15;94559.94;5122673;28;20295;-76
2022/07/17 08:37:21;;;;;;;5.07;2.20;;;;;;;25.00;32.22;94564.25;5122546;28;20027;-76
2022/07/17 08:39:47;;;;;;;6.32;2.10;;;;;;;25.02;33.02;94564.63;5122935;28;20088;-76
2022/07/17 08:42:16;;;;;;;13.32;2.35;;;;;;;25.02;32.35;94564.63;5122452;28;20235;-76
2022/07/17 08:44:42;;;;;;;7.07;2.28;;;;;;;25.10;32.91;94564.66;5122541;28;20028;-76
2022/07/17 08:47:09;;;;;;;5.88;2.05;;;;;;;25.27;32.55;94557.66;5122626;28;20020;-76
2022/07/17 08:49:38;;;;;;;4.93;1.88;;;;;;;25.38;32.27;94550.22;5123014;28;20023;-76
2022/07/17 08:52:04;;;;;;;10.88;3.47;;;;;;;25.52;32.76;94558.41;5126325;28;20279;-75
2022/07/17 08:54:30;;;;;;;5.68;2.70;;;;;;;25.66;32.00;94557.59;5126225;27;20061;-75
2022/07/17 08:56:57;;;;;;;15.93;2.25;;;;;;;25.63;31.42;94550.22;5126240;28;20023;-75
2022/07/17 08:59:22;;;;;;;10.18;2.50;;;;;;;25.59;31.73;94541.25;5126248;28;20045;-75
2022/07/17 09:01:48;;;;;;;8.13;2.53;;;;;;;25.68;32.13;94543.56;5126243;28;20314;-76
2022/07/17 09:04:13;;;;;;;4.25;2.10;;;;;;;25.83;32.01;94545.09;5126289;28;20057;-75
2022/07/17 09:06:39;;;;;;;4.68;2.53;;;;;;;25.76;32.68;94539.66;5126173;28;20030;-75
2022/07/17 09:09:07;;;;;;;5.15;2.67;;;;;;;25.79;31.75;94536.91;5126105;28;20200;-75
2022/07/17 09:11:50;;;;;;;3.83;2.10;;;;;;;25.85;32.19;94542.75;5126015;28;20019;-75
2022/07/17 09:14:18;;;;;;;4.43;1.88;;;;;;;25.79;31.50;94534.19;5126088;28;20039;-75
2022/07/17 09:16:53;;;;;;;3.90;2.53;;;;;;;25.74;30.10;94533.81;5125830;28;20272;-75
2022/07/17 09:19:32;;;;;;;6.15;2.25;;;;;;;25.67;31.60;94536.56;5125653;28;20238;-75
2022/07/17 09:22:09;;;;;;;5.63;2.50;;;;;;;25.73;31.70;94535.75;5125893;28;20088;-76
2022/07/17 09:24:42;;;;;;;7.53;3.70;;;;;;;25.74;31.57;94534.56;5125761;28;20023;-76
2022/07/17 09:27:09;;;;;;;6.38;2.70;;;;;;;25.90;32.01;94544.34;5125764;28;20031;-76
2022/07/17 09:29:35;;;;;;;5.60;2.28;;;;;;;25.99;31.38;94544.69;5125503;28;20023;-76
2022/07/17 09:32:00;;;;;;;4.75;2.33;;;;;;;25.98;31.65;94540.41;5125478;27;20102;-76
2022/07/17 09:34:26;;;;;;;3.88;1.80;;;;;;;25.95;31.68;94546.63;5125677;28;20007;-76
2022/07/17 09:37:00;;;;;;;7.28;2.30;;;;;;;25.94;30.61;94539.63;5125548;28;20041;-75
2022/07/17 09:39:37;;;;;;;11.45;2.45;;;;;;;25.97;31.37;94547.03;5125452;28;20329;-76
2022/07/17 09:42:03;;;;;;;4.60;2.13;;;;;;;26.02;33.97;94533.75;5125355;28;20340;-75
2022/07/17 09:44:29;;;;;;;7.20;2.40;;;;;;;26.10;30.64;94534.50;5125263;27;20023;-76
2022/07/17 09:46:55;;;;;;;5.57;2.05;;;;;;;26.04;31.82;94543.50;5125330;28;20384;-76
2022/07/17 09:49:25;;;;;;;3.55;1.95;;;;;;;26.09;32.95;94537.63;5125320;28;20022;-75
2022/07/17 09:51:51;;;;;;;3.72;2.25;;;;;;;26.05;31.52;94531.41;5125157;28;20051;-75
2022/07/17 09:54:21;;;;;;;5.10;1.92;;;;;;;26.06;32.58;94541.94;5124011;28;20314;-76
2022/07/17 09:56:50;;;;;;;7.22;2.28;;;;;;;26.02;32.73;94530.25;5125265;27;20304;-76
2022/07/17 09:59:17;;;;;;;3.78;2.25;;;;;;;25.99;32.08;94536.47;5124988;28;20095;-76
2022/07/17 10:01:45;;;;;;;4.82;2.60;;;;;;;26.02;32.28;94538.44;5123904;28;20030;-76
2022/07/17 10:04:12;;;;;;;9.02;2.50;;;;;;;26.16;30.59;94535.66;5124824;27;20023;-76
2022/07/17 10:06:38;;;;;;;4.13;1.90;;;;;;;26.23;30.76;94535.59;5124934;28;20042;-76
2022/07/17 10:09:05;;;;;;;7.63;2.63;;;;;;;26.25;30.77;94535.22;5124783;27;20026;-76
2022/07/17 10:11:33;;;;;;;4.38;2.10;;;;;;;26.27;31.06;94532.09;5125071;28;20031;-76
2022/07/17 10:14:05;;;;;;;7.88;2.10;;;;;;;26.35;31.28;94541.81;5124990;28;20318;-76
2022/07/17 10:16:32;;;;;;;3.55;1.90;;;;;;;26.42;30.37;94536.31;5125151;28;20237;-76
2022/07/17 10:19:00;;;;;;;6.88;2.35;;;;;;;26.52;30.50;94523.75;5124774;28;20030;-76
2022/07/17 10:21:28;;;;;;;6.20;2.05;;;;;;;26.72;30.25;94532.25;5123473;28;20039;-76
2022/07/17 10:23:53;;;;;;;5.68;2.47;;;;;;;26.86;30.22;94523.19;5124577;28;20035;-76
2022/07/17 10:26:48;;;;;;;6.47;2.20;;;;;;;26.93;31.62;94525.88;5124471;28;20038;-76
2022/07/17 10:29:31;;;;;;;6.85;2.00;;;;;;;26.99;31.21;94524.28;5122458;28;20032;-75
2022/07/17 10:31:59;;;;;;;3.53;1.77;;;;;;;26.95;29.99;94516.09;5124528;28;20024;-75
2022/07/17 10:34:47;;;;;;;8.45;2.38;;;;;;;27.08;30.29;94518.34;5124206;28;20103;-76
2022/07/17 10:37:23;;;;;;;5.13;2.05;;;;;;;27.16;30.38;94522.56;5124410;28;20032;-76
2022/07/17 10:40:19;;;;;;;6.65;1.77;;;;;;;27.11;29.41;94515.59;5124390;27;20031;-75
2022/07/17 10:42:52;;;;;;;9.60;1.98;;;;;;;27.00;30.88;94515.66;5119340;27;20058;-76
2022/07/17 10:45:21;;;;;;;3.60;1.77;;;;;;;27.13;29.08;94517.88;5124015;28;20023;-76
2022/07/17 10:47:52;;;;;;;7.68;1.88;;;;;;;27.05;28.60;94510.94;5123941;28;20370;-76
2022/07/17 10:50:23;;;;;;;5.93;1.88;;;;;;;27.20;28.48;94512.38;5123801;28;20225;-75
2022/07/17 10:53:12;;;;;;;5.18;2.38;;;;;;;27.25;28.01;94514.69;5124163;28;20232;-75
2022/07/17 10:55:40;;;;;;;6.57;2.08;;;;;;;27.33;29.46;94515.41;5123884;28;20015;-75
2022/07/17 10:58:32;;;;;;;4.57;2.60;;;;;;;27.39;30.10;94514.56;5123787;28;20089;-75
2022/07/17 11:01:12;;;;;;;7.25;2.10;;;;;;;27.36;28.17;94507.19;5124133;28;20050;-75
2022/07/17 11:03:55;;;;;;;3.08;1.75;;;;;;;27.55;29.67;94497.59;5123726;28;20023;-75
2022/07/17 11:06:27;;;;;;;4.55;2.03;;;;;;;27.74;30.29;94498.19;5123694;28;20019;-75
2022/07/17 11:08:58;;;;;;;3.33;2.08;;;;;;;27.70;27.44;94494.72;5123906;28;20024;-75
2022/07/17 11:11:41;;;;;;;3.25;1.88;;;;;;;27.84;28.81;94496.50;5123505;28;20046;-75
2022/07/17 11:14:27;;;;;;;2.97;2.00;;;;;;;28.00;29.98;94500.25;5123440;28;20023;-75
2022/07/17 11:16:55;;;;;;;2.97;1.75;;;;;;;27.96;27.92;94480.34;5123246;28;20111;-75
2022/07/17 11:19:32;;;;;;;4.30;1.63;;;;;;;28.04;29.46;94493.97;5123643;28;20363;-75
2022/07/17 11:22:03;;;;;;;4.63;2.30;;;;;;;28.02;30.24;94488.88;5123479;28;20043;-76
2022/07/17 11:24:47;;;;;;;3.35;1.98;;;;;;;28.00;30.86;94488.53;5123717;28;20027;-76
2022/07/17 11:27:28;;;;;;;4.78;2.25;;;;;;;28.02;28.61;94484.19;5123392;28;20311;-75
2022/07/17 11:29:56;;;;;;;2.80;1.83;;;;;;;28.14;28.84;94471.91;5123439;28;20349;-75
2022/07/17 11:32:22;;;;;;;8.40;2.45;;;;;;;28.27;27.27;94485.06;5123198;28;20090;-75
2022/07/17 11:34:47;;;;;;;3.95;1.67;;;;;;;28.30;26.78;94487.75;5123470;28;20194;-76